createdAt,value
2023-05-02T00:00:05.443Z,101990.34
2023-05-02T00:02:07.963Z,102000.69
2023-05-02T00:04:09.833Z,102009.31
2023-05-02T00:06:12.233Z,102011.94
2023-05-02T00:08:14.114Z,102011.94
2023-05-02T00:10:15.930Z,102016.03
2023-05-02T00:12:17.787Z,102007.44
2023-05-02T00:14:19.673Z,102006.72
2023-05-02T00:16:21.837Z,102013.31
2023-05-02T00:18:24.493Z,102014.22
2023-05-02T00:20:26.674Z,102017.78
2023-05-02T00:22:30.740Z,102015.97
2023-05-02T00:24:33.338Z,102016.75
2023-05-02T00:26:35.210Z,102019.44
2023-05-02T00:28:36.996Z,102008.63
2023-05-02T00:30:44.110Z,102012.84
2023-05-02T00:32:46.005Z,102008.66
2023-05-02T00:34:47.827Z,102013.78
2023-05-02T00:36:49.709Z,102023.97
2023-05-02T00:38:51.564Z,102012.75
2023-05-02T00:40:53.631Z,102009.41
2023-05-02T00:42:55.478Z,102013.72
2023-05-02T00:44:57.755Z,102016.66
2023-05-02T00:47:01.985Z,102014.13
2023-05-02T00:49:03.760Z,102023.41
2023-05-02T00:51:05.706Z,102018.41
2023-05-02T00:53:09.011Z,102018.91
2023-05-02T00:55:10.739Z,102020.88
2023-05-02T00:57:12.547Z,102030.31
2023-05-02T00:59:15.260Z,102026.53
2023-05-02T01:01:28.184Z,102020.16
2023-05-02T01:03:33.429Z,102024.88
2023-05-02T01:05:49.373Z,102029.63
2023-05-02T01:07:51.692Z,102036.06
2023-05-02T01:10:13.166Z,102033.53
2023-05-02T01:12:29.153Z,102034.97
2023-05-02T01:14:34.921Z,102036.72
2023-05-02T01:16:42.736Z,102038.47
2023-05-02T01:18:47.152Z,102034.88
2023-05-02T01:20:53.590Z,102044.38
2023-05-02T01:23:01.626Z,102045.25
2023-05-02T01:25:13.600Z,102046.75
2023-05-02T01:27:23.506Z,102042.16
2023-05-02T01:29:28.086Z,102047.47
2023-05-02T01:31:34.686Z,102051.84
2023-05-02T01:33:38.521Z,102056.03
2023-05-02T01:35:42.885Z,102055.09
2023-05-02T01:37:47.274Z,102054.00
2023-05-02T01:39:51.504Z,102058.34
2023-05-02T01:41:56.265Z,102059.13
2023-05-02T01:44:00.372Z,102059.88
2023-05-02T01:46:06.255Z,102060.50
2023-05-02T01:48:10.973Z,102064.94
2023-05-02T01:50:20.622Z,102058.69
2023-05-02T01:52:24.399Z,102066.88
2023-05-02T01:54:27.694Z,102065.59
2023-05-02T01:56:37.018Z,102072.00
2023-05-02T01:58:40.818Z,102073.75
2023-05-02T02:00:45.484Z,102073.44
2023-05-02T02:02:49.010Z,102082.06
2023-05-02T02:04:53.908Z,102087.75
2023-05-02T02:07:02.388Z,102094.44
2023-05-02T02:09:04.287Z,102092.78
2023-05-02T02:11:12.019Z,102094.63
2023-05-02T02:13:20.175Z,102095.75
2023-05-02T02:15:28.433Z,102092.53
2023-05-02T02:17:39.847Z,102096.94
2023-05-02T02:19:43.067Z,102097.69
2023-05-02T02:21:48.193Z,102088.34
2023-05-02T02:23:54.171Z,102091.72
2023-05-02T02:25:57.718Z,102096.25
2023-05-02T02:28:00.563Z,102093.66
2023-05-02T02:30:02.389Z,102103.25
2023-05-02T02:32:04.610Z,102099.41
2023-05-02T02:34:06.843Z,102112.81
2023-05-02T02:36:18.936Z,102113.69
2023-05-02T02:38:27.202Z,102116.34
2023-05-02T02:40:40.119Z,102125.22
2023-05-02T02:42:57.325Z,102137.06
2023-05-02T02:45:12.547Z,102132.16
2023-05-02T02:47:27.572Z,102126.69
2023-05-02T02:49:40.203Z,102126.66
2023-05-02T02:51:54.096Z,102126.09
2023-05-02T02:54:22.984Z,102132.34
2023-05-02T02:56:39.447Z,102131.63
2023-05-02T02:58:55.746Z,102134.38
2023-05-02T03:01:00.717Z,102135.22
2023-05-02T03:03:02.525Z,102140.47
2023-05-02T03:05:07.512Z,102138.84
2023-05-02T03:07:09.697Z,102137.00
2023-05-02T03:09:21.356Z,102152.81
2023-05-02T03:11:23.310Z,102146.06
2023-05-02T03:13:25.136Z,102138.28
2023-05-02T03:15:33.286Z,102146.16
2023-05-02T03:17:35.016Z,102152.97
2023-05-02T03:19:37.480Z,102156.94
2023-05-02T03:21:39.321Z,102155.41
2023-05-02T03:23:41.083Z,102151.16
2023-05-02T03:25:42.998Z,102154.59
2023-05-02T03:27:44.772Z,102160.50
2023-05-02T03:29:46.655Z,102159.59
2023-05-02T03:31:48.433Z,102163.16
2023-05-02T03:33:50.642Z,102165.50
2023-05-02T03:35:52.364Z,102172.28
2023-05-02T03:37:54.099Z,102175.44
2023-05-02T03:39:56.041Z,102176.56
2023-05-02T03:41:57.797Z,102181.66
2023-05-02T03:43:59.562Z,102174.03
2023-05-02T03:46:07.973Z,102173.22
2023-05-02T03:48:09.808Z,102169.06
2023-05-02T03:50:11.678Z,102176.84
2023-05-02T03:52:13.473Z,102177.47
2023-05-02T03:54:15.230Z,102174.75
2023-05-02T03:56:20.397Z,102175.66
2023-05-02T03:58:22.271Z,102177.38
2023-05-02T04:00:24.135Z,102184.50
2023-05-02T04:02:26.314Z,102185.44
2023-05-02T04:04:28.289Z,102181.22
2023-05-02T04:06:30.428Z,102190.91
2023-05-02T04:08:35.382Z,102204.41
2023-05-02T04:10:37.186Z,102202.19
2023-05-02T04:12:38.878Z,102204.53
2023-05-02T04:14:42.533Z,102205.22
2023-05-02T04:16:54.451Z,102200.91
2023-05-02T04:18:56.268Z,102203.47
2023-05-02T04:20:58.040Z,102206.16
2023-05-02T04:22:59.752Z,102206.72
2023-05-02T04:25:01.435Z,102202.91
2023-05-02T04:27:03.254Z,102199.53
2023-05-02T04:29:05.046Z,102197.78
2023-05-02T04:31:09.376Z,102198.13
2023-05-02T04:33:12.095Z,102205.97
2023-05-02T04:35:15.499Z,102200.81
2023-05-02T04:37:17.867Z,102210.97
2023-05-02T04:39:19.633Z,102210.97
2023-05-02T04:41:21.776Z,102210.38
2023-05-02T04:43:24.700Z,102222.41
2023-05-02T04:45:26.811Z,102225.84
2023-05-02T04:47:28.574Z,102225.44
2023-05-02T04:49:32.209Z,102225.41
2023-05-02T04:51:34.041Z,102233.59
2023-05-02T04:53:36.162Z,102239.69
2023-05-02T04:55:37.908Z,102244.72
2023-05-02T04:57:42.171Z,102237.88
2023-05-02T04:59:43.935Z,102243.72
2023-05-02T05:01:45.967Z,102249.16
2023-05-02T05:03:47.974Z,102258.75
2023-05-02T05:05:52.221Z,102250.63
2023-05-02T05:07:53.984Z,102259.44
2023-05-02T05:09:55.732Z,102259.53
2023-05-02T05:11:57.432Z,102265.53
2023-05-02T05:13:59.435Z,102268.22
2023-05-02T05:16:04.037Z,102264.22
2023-05-02T05:18:06.789Z,102268.03
2023-05-02T05:20:10.417Z,102271.28
2023-05-02T05:22:12.166Z,102272.97
2023-05-02T05:24:14.022Z,102273.13
2023-05-02T05:26:17.136Z,102277.16
2023-05-02T05:28:19.294Z,102273.50
2023-05-02T05:30:21.214Z,102281.16
2023-05-02T05:32:23.079Z,102282.88
2023-05-02T05:34:25.346Z,102291.06
2023-05-02T05:36:27.948Z,102293.25
2023-05-02T05:38:29.699Z,102283.66
2023-05-02T05:40:31.427Z,102287.16
2023-05-02T05:42:33.217Z,102289.22
2023-05-02T05:44:34.993Z,102290.19
2023-05-02T05:46:37.048Z,102297.16
2023-05-02T05:48:39.003Z,102304.91
2023-05-02T05:50:40.798Z,102311.28
2023-05-02T05:52:42.576Z,102310.69
2023-05-02T05:54:44.418Z,102318.13
2023-05-02T05:56:46.339Z,102322.47
2023-05-02T05:58:48.194Z,102324.72
2023-05-02T06:00:50.940Z,102320.81
2023-05-02T06:02:53.160Z,102330.78
2023-05-02T06:04:55.100Z,102336.31
2023-05-02T06:06:57.221Z,102331.78
2023-05-02T06:08:59.190Z,102333.25
2023-05-02T06:11:01.009Z,102333.44
2023-05-02T06:13:02.820Z,102335.38
2023-05-02T06:15:05.318Z,102338.31
2023-05-02T06:17:09.503Z,102342.50
2023-05-02T06:19:11.332Z,102332.38
2023-05-02T06:21:13.688Z,102337.47
2023-05-02T06:23:17.948Z,102342.09
2023-05-02T06:25:19.879Z,102344.81
2023-05-02T06:27:21.708Z,102343.25
2023-05-02T06:29:23.579Z,102344.50
2023-05-02T06:31:25.668Z,102354.59
2023-05-02T06:33:29.840Z,102353.25
2023-05-02T06:35:31.754Z,102345.59
2023-05-02T06:37:35.778Z,102354.28
2023-05-02T06:39:38.491Z,102348.28
2023-05-02T06:41:40.446Z,102340.03
2023-05-02T06:43:42.443Z,102337.38
2023-05-02T06:45:44.957Z,102340.25
2023-05-02T06:47:46.964Z,102354.06
2023-05-02T06:49:48.968Z,102346.91
2023-05-02T06:51:50.997Z,102354.50
2023-05-02T06:53:52.857Z,102361.44
2023-05-02T06:55:54.758Z,102357.94
2023-05-02T06:57:56.628Z,102359.88
2023-05-02T06:59:58.955Z,102355.53
2023-05-02T07:02:02.991Z,102360.81
2023-05-02T07:04:06.725Z,102358.28
2023-05-02T07:06:08.870Z,102359.50
2023-05-02T07:08:11.697Z,102367.06
2023-05-02T07:10:13.712Z,102367.16
2023-05-02T07:12:15.884Z,102371.66
2023-05-02T07:14:17.796Z,102374.31
2023-05-02T07:16:20.038Z,102371.84
2023-05-02T07:18:22.157Z,102378.84
2023-05-02T07:20:23.997Z,102377.41
2023-05-02T07:22:26.347Z,102376.63
2023-05-02T07:24:28.284Z,102379.31
2023-05-02T07:26:30.213Z,102377.28
2023-05-02T07:28:32.331Z,102378.53
2023-05-02T07:30:34.275Z,102372.44
2023-05-02T07:32:36.204Z,102378.38
2023-05-02T07:34:38.065Z,102379.63
2023-05-02T07:36:40.197Z,102383.09
2023-05-02T07:38:42.136Z,102375.19
2023-05-02T07:40:44.428Z,102384.41
2023-05-02T07:42:47.001Z,102384.41
2023-05-02T07:44:49.307Z,102392.03
2023-05-02T07:46:51.824Z,102393.00
2023-05-02T07:48:54.328Z,102390.09
2023-05-02T07:50:56.237Z,102390.47
2023-05-02T07:53:00.804Z,102390.56
2023-05-02T07:55:02.662Z,102386.38
2023-05-02T07:57:05.446Z,102386.41
2023-05-02T07:59:07.700Z,102386.78
2023-05-02T08:01:11.061Z,102384.97
2023-05-02T08:03:13.198Z,102386.47
2023-05-02T08:05:18.611Z,102397.94
2023-05-02T08:07:20.708Z,102391.28
2023-05-02T08:09:22.948Z,102388.88
2023-05-02T08:11:25.799Z,102393.66
2023-05-02T08:13:28.563Z,102397.56
2023-05-02T08:15:33.056Z,102386.34
2023-05-02T08:17:35.129Z,102390.69
2023-05-02T08:19:37.045Z,102395.91
2023-05-02T08:21:38.974Z,102408.06
2023-05-02T08:23:42.075Z,102401.72
2023-05-02T08:25:46.924Z,102398.06
2023-05-02T08:27:48.951Z,102409.84
2023-05-02T08:29:51.167Z,102409.88
2023-05-02T08:31:53.439Z,102412.88
2023-05-02T08:33:55.767Z,102413.81
2023-05-02T08:35:57.732Z,102411.97
2023-05-02T08:37:59.702Z,102404.66
2023-05-02T08:40:01.856Z,102402.44
2023-05-02T08:42:08.239Z,102403.63
2023-05-02T08:44:10.702Z,102409.84
2023-05-02T08:46:16.561Z,102417.25
2023-05-02T08:48:20.181Z,102416.88
2023-05-02T08:50:24.678Z,102422.44
2023-05-02T08:52:27.539Z,102423.69
2023-05-02T08:54:29.560Z,102426.41
2023-05-02T08:56:32.902Z,102431.78
2023-05-02T08:58:38.860Z,102436.03
2023-05-02T09:00:43.330Z,102436.28
2023-05-02T09:03:02.243Z,102440.88
2023-05-02T09:05:08.100Z,102446.47
2023-05-02T09:07:12.567Z,102446.63
2023-05-02T09:09:14.504Z,102455.75
2023-05-02T09:11:17.638Z,102456.38
2023-05-02T09:13:30.940Z,102457.94
2023-05-02T09:15:48.471Z,102464.38
2023-05-02T09:17:57.911Z,102457.16
2023-05-02T09:20:01.591Z,102468.34
2023-05-02T09:22:03.512Z,102464.00
2023-05-02T09:24:20.312Z,102467.75
2023-05-02T09:26:28.812Z,102469.22
2023-05-02T09:28:41.207Z,102474.09
2023-05-02T09:30:43.254Z,102473.66
2023-05-02T09:32:46.608Z,102477.91
2023-05-02T09:35:06.867Z,102483.41
2023-05-02T09:37:09.123Z,102478.72
2023-05-02T09:39:14.056Z,102490.28
2023-05-02T09:41:18.161Z,102483.66
2023-05-02T09:43:20.164Z,102488.88
2023-05-02T09:45:29.229Z,102494.09
2023-05-02T09:47:31.353Z,102502.28
2023-05-02T09:49:42.501Z,102504.38
2023-05-02T09:51:47.689Z,102494.19
2023-05-02T09:53:50.584Z,102499.91
2023-05-02T09:56:04.889Z,102500.22
2023-05-02T09:58:06.911Z,102491.19
2023-05-02T10:00:10.645Z,102488.66
2023-05-02T10:02:13.638Z,102497.28
2023-05-02T10:04:16.690Z,102487.56
2023-05-02T10:06:19.356Z,102494.22
2023-05-02T10:08:22.470Z,102491.03
2023-05-02T10:10:24.380Z,102479.78
2023-05-02T10:12:31.033Z,102483.22
2023-05-02T10:14:39.681Z,102483.91
2023-05-02T10:17:02.210Z,102486.75
2023-05-02T10:19:09.298Z,102489.53
2023-05-02T10:21:12.965Z,102489.78
2023-05-02T10:23:16.507Z,102492.31
2023-05-02T10:25:19.427Z,102495.94
2023-05-02T10:27:22.383Z,102498.53
2023-05-02T10:29:29.846Z,102499.75
2023-05-02T10:31:35.257Z,102498.53
2023-05-02T10:33:39.536Z,102499.75
2023-05-02T10:35:47.227Z,102495.19
2023-05-02T10:37:50.086Z,102506.16
2023-05-02T10:39:52.501Z,102502.06
2023-05-02T10:41:56.728Z,102502.81
2023-05-02T10:44:00.323Z,102503.19
2023-05-02T10:46:04.003Z,102497.25
2023-05-02T10:48:15.138Z,102516.66
2023-05-02T10:50:17.376Z,102515.88
2023-05-02T10:52:31.042Z,102519.34
2023-05-02T10:54:33.512Z,102506.59
2023-05-02T10:56:35.745Z,102510.09
2023-05-02T10:58:37.936Z,102522.31
2023-05-02T11:00:40.161Z,102524.31
2023-05-02T11:02:43.107Z,102524.53
2023-05-02T11:05:04.950Z,102531.69
2023-05-02T11:07:08.002Z,102531.81
2023-05-02T11:09:18.968Z,102531.03
2023-05-02T11:11:38.951Z,102535.25
2023-05-02T11:13:51.357Z,102535.69
2023-05-02T11:15:56.268Z,102533.44
2023-05-02T11:18:09.276Z,102534.53
2023-05-02T11:20:20.832Z,102532.41
2023-05-02T11:22:27.359Z,102534.97
2023-05-02T11:24:42.538Z,102531.03
2023-05-02T11:26:45.367Z,102524.16
2023-05-02T11:28:48.641Z,102518.63
2023-05-02T11:30:51.443Z,102511.94
2023-05-02T11:32:59.480Z,102511.38
2023-05-02T11:35:02.580Z,102501.69
2023-05-02T11:37:15.874Z,102504.09
2023-05-02T11:39:21.454Z,102495.84
2023-05-02T11:41:23.629Z,102505.97
2023-05-02T11:43:30.119Z,102498.78
2023-05-02T11:45:37.518Z,102500.47
2023-05-02T11:47:41.665Z,102507.78
2023-05-02T11:49:44.389Z,102510.81
2023-05-02T11:51:46.920Z,102517.59
2023-05-02T11:53:50.009Z,102522.44
2023-05-02T11:55:55.960Z,102518.22
2023-05-02T11:57:58.260Z,102505.91
2023-05-02T12:00:00.976Z,102517.28
2023-05-02T12:02:07.553Z,102523.97
2023-05-02T12:04:10.886Z,102528.63
2023-05-02T12:06:16.527Z,102528.50
2023-05-02T12:08:24.418Z,102523.66
2023-05-02T12:10:38.160Z,102528.25
2023-05-02T12:12:41.465Z,102527.59
2023-05-02T12:14:44.325Z,102529.41
2023-05-02T12:16:46.693Z,102532.03
2023-05-02T12:18:49.669Z,102525.84
2023-05-02T12:20:53.592Z,102536.03
2023-05-02T12:22:56.367Z,102521.81
2023-05-02T12:24:59.390Z,102530.19
2023-05-02T12:27:12.114Z,102525.47
2023-05-02T12:29:14.607Z,102532.50
2023-05-02T12:31:17.071Z,102539.78
2023-05-02T12:33:19.859Z,102542.59
2023-05-02T12:35:40.569Z,102539.25
2023-05-02T12:37:43.132Z,102531.34
2023-05-02T12:39:45.326Z,102542.63
2023-05-02T12:41:47.644Z,102544.41
2023-05-02T12:43:51.607Z,102547.84
2023-05-02T12:46:19.689Z,102539.56
2023-05-02T12:48:26.526Z,102543.53
2023-05-02T12:50:37.536Z,102541.31
2023-05-02T12:52:58.896Z,102546.50
2023-05-02T12:55:20.354Z,102548.84
2023-05-02T12:57:24.695Z,102550.84
2023-05-02T12:59:28.236Z,102545.19
2023-05-02T13:01:31.820Z,102541.69
2023-05-02T13:03:34.538Z,102549.31
2023-05-02T13:05:45.487Z,102550.41
2023-05-02T13:07:48.092Z,102553.00
2023-05-02T13:09:50.294Z,102558.28
2023-05-02T13:11:54.499Z,102555.28
2023-05-02T13:13:57.093Z,102553.94
2023-05-02T13:15:59.462Z,102548.59
2023-05-02T13:18:02.096Z,102544.16
2023-05-02T13:20:05.912Z,102535.63
2023-05-02T13:22:09.221Z,102539.28
2023-05-02T13:24:18.235Z,102530.56
2023-05-02T13:26:20.672Z,102534.50
2023-05-02T13:28:26.238Z,102528.72
2023-05-02T13:30:28.731Z,102531.88
2023-05-02T13:32:31.333Z,102529.13
2023-05-02T13:34:33.621Z,102530.47
2023-05-02T13:36:36.705Z,102533.28
2023-05-02T13:38:39.268Z,102535.63
2023-05-02T13:40:41.950Z,102541.25
2023-05-02T13:42:44.181Z,102541.53
2023-05-02T13:44:46.308Z,102538.78
2023-05-02T13:46:48.641Z,102534.31
2023-05-02T13:48:50.973Z,102545.09
2023-05-02T13:50:53.259Z,102539.66
2023-05-02T13:52:55.768Z,102536.22
2023-05-02T13:54:58.164Z,102539.06
2023-05-02T13:57:04.550Z,102546.31
2023-05-02T13:59:08.740Z,102534.63
2023-05-02T14:01:12.353Z,102526.69
2023-05-02T14:03:14.770Z,102529.63
2023-05-02T14:05:17.020Z,102534.38
2023-05-02T14:07:19.263Z,102538.78
2023-05-02T14:09:21.538Z,102539.03
2023-05-02T14:11:23.593Z,102542.31
2023-05-02T14:13:26.121Z,102541.75
2023-05-02T14:15:34.257Z,102543.44
2023-05-02T14:17:36.772Z,102535.44
2023-05-02T14:19:39.210Z,102536.72
2023-05-02T14:21:41.687Z,102539.84
2023-05-02T14:23:43.771Z,102552.44
2023-05-02T14:25:46.277Z,102549.66
2023-05-02T14:27:48.630Z,102545.28
2023-05-02T14:29:50.924Z,102532.06
2023-05-02T14:31:53.087Z,102535.41
2023-05-02T14:33:55.353Z,102535.06
2023-05-02T14:35:57.466Z,102530.88
2023-05-02T14:37:59.682Z,102528.03
2023-05-02T14:40:02.143Z,102520.31
2023-05-02T14:42:04.787Z,102516.66
2023-05-02T14:44:07.196Z,102531.28
2023-05-02T14:46:09.436Z,102526.66
2023-05-02T14:48:17.219Z,102517.63
2023-05-02T14:50:19.781Z,102523.28
2023-05-02T14:52:22.081Z,102519.72
2023-05-02T14:54:29.063Z,102519.34
2023-05-02T14:56:31.686Z,102520.03
2023-05-02T14:58:34.491Z,102523.72
2023-05-02T15:00:38.668Z,102524.13
2023-05-02T15:02:41.111Z,102515.78
2023-05-02T15:04:43.318Z,102522.53
2023-05-02T15:06:46.286Z,102509.16
2023-05-02T15:08:48.727Z,102518.63
2023-05-02T15:10:51.024Z,102518.16
2023-05-02T15:12:53.217Z,102524.59
2023-05-02T15:15:00.183Z,102521.41
2023-05-02T15:17:02.933Z,102517.69
2023-05-02T15:19:05.217Z,102527.25
2023-05-02T15:21:07.240Z,102519.69
2023-05-02T15:23:09.618Z,102516.31
2023-05-02T15:25:12.185Z,102521.06
2023-05-02T15:27:15.367Z,102516.75
2023-05-02T15:29:18.057Z,102507.09
2023-05-02T15:31:20.799Z,102507.84
2023-05-02T15:33:23.246Z,102505.53
2023-05-02T15:35:36.741Z,102509.56
2023-05-02T15:37:39.624Z,102508.88
2023-05-02T15:39:45.141Z,102512.66
2023-05-02T15:41:48.149Z,102508.41
2023-05-02T15:43:50.573Z,102508.78
2023-05-02T15:45:57.189Z,102503.47
2023-05-02T15:47:59.675Z,102504.09
2023-05-02T15:50:02.379Z,102521.13
2023-05-02T15:52:05.082Z,102508.19
2023-05-02T15:54:07.380Z,102509.44
2023-05-02T15:56:10.494Z,102513.44
2023-05-02T15:58:13.561Z,102508.78
2023-05-02T16:00:17.233Z,102513.25
2023-05-02T16:02:22.826Z,102508.09
2023-05-02T16:04:25.775Z,102516.47
2023-05-02T16:06:28.132Z,102505.72
2023-05-02T16:08:30.585Z,102509.47
2023-05-02T16:10:32.991Z,102512.78
2023-05-02T16:12:35.367Z,102517.25
2023-05-02T16:14:37.778Z,102520.63
2023-05-02T16:16:40.132Z,102505.63
2023-05-02T16:18:42.496Z,102504.41
2023-05-02T16:20:44.938Z,102504.78
2023-05-02T16:22:48.795Z,102518.88
2023-05-02T16:24:51.303Z,102516.06
2023-05-02T16:26:54.144Z,102512.69
2023-05-02T16:28:56.639Z,102515.44
2023-05-02T16:30:58.803Z,102511.75
2023-05-02T16:33:01.984Z,102512.44
2023-05-02T16:35:11.242Z,102512.03
2023-05-02T16:37:15.643Z,102511.91
2023-05-02T16:39:18.253Z,102510.88
2023-05-02T16:41:20.436Z,102515.19
2023-05-02T16:43:22.749Z,102506.94
2023-05-02T16:45:32.424Z,102510.09
2023-05-02T16:47:36.203Z,102503.78
2023-05-02T16:49:39.652Z,102508.66
2023-05-02T16:51:42.116Z,102509.88
2023-05-02T16:53:44.588Z,102512.91
2023-05-02T16:55:49.417Z,102513.47
2023-05-02T16:57:51.835Z,102512.75
2023-05-02T16:59:54.248Z,102517.34
2023-05-02T17:01:57.850Z,102512.91
2023-05-02T17:04:00.261Z,102515.06
2023-05-02T17:06:02.698Z,102520.56
2023-05-02T17:08:05.404Z,102513.16
2023-05-02T17:10:09.052Z,102522.31
2023-05-02T17:12:12.332Z,102512.13
2023-05-02T17:14:14.811Z,102511.44
2023-05-02T17:16:24.160Z,102509.91
2023-05-02T17:18:27.818Z,102508.22
2023-05-02T17:20:30.731Z,102503.09
2023-05-02T17:22:38.817Z,102505.25
2023-05-02T17:24:44.014Z,102504.34
2023-05-02T17:26:46.326Z,102505.69
2023-05-02T17:28:50.723Z,102500.84
2023-05-02T17:30:56.288Z,102505.25
2023-05-02T17:32:59.054Z,102507.03
2023-05-02T17:35:01.811Z,102506.94
2023-05-02T17:37:04.500Z,102504.91
2023-05-02T17:39:06.806Z,102508.38
2023-05-02T17:41:09.254Z,102501.72
2023-05-02T17:43:11.591Z,102499.31
2023-05-02T17:45:14.170Z,102505.88
2023-05-02T17:47:18.484Z,102501.78
2023-05-02T17:49:20.794Z,102506.06
2023-05-02T17:51:23.119Z,102506.69
2023-05-02T17:53:26.712Z,102512.41
2023-05-02T17:55:32.140Z,102519.81
2023-05-02T17:57:34.935Z,102523.88
2023-05-02T17:59:41.757Z,102510.50
2023-05-02T18:01:43.857Z,102507.13
2023-05-02T18:03:47.741Z,102515.19
2023-05-02T18:05:50.341Z,102521.94
2023-05-02T18:07:53.286Z,102515.63
2023-05-02T18:09:56.502Z,102521.06
2023-05-02T18:12:01.062Z,102516.47
2023-05-02T18:14:06.392Z,102522.31
2023-05-02T18:16:09.018Z,102517.22
2023-05-02T18:18:11.408Z,102524.13
2023-05-02T18:20:14.649Z,102527.59
2023-05-02T18:22:19.770Z,102521.91
2023-05-02T18:24:22.040Z,102522.78
2023-05-02T18:26:24.201Z,102524.66
2023-05-02T18:28:26.331Z,102525.50
2023-05-02T18:30:28.492Z,102521.13
2023-05-02T18:32:33.153Z,102530.56
2023-05-02T18:34:38.363Z,102529.53
2023-05-02T18:36:41.244Z,102518.50
2023-05-02T18:38:43.241Z,102523.50
2023-05-02T18:40:45.515Z,102524.81
2023-05-02T18:42:47.565Z,102520.56
2023-05-02T18:44:49.769Z,102518.69
2023-05-02T18:46:52.410Z,102529.44
2023-05-02T18:48:54.347Z,102530.06
2023-05-02T18:51:00.236Z,102527.28
2023-05-02T18:53:02.428Z,102528.53
2023-05-02T18:55:06.349Z,102532.56
2023-05-02T18:57:08.665Z,102529.28
2023-05-02T18:59:10.683Z,102536.22
2023-05-02T19:01:15.410Z,102537.91
2023-05-02T19:03:18.453Z,102537.97
2023-05-02T19:05:20.649Z,102539.22
2023-05-02T19:07:22.579Z,102540.88
2023-05-02T19:09:25.024Z,102537.41
2023-05-02T19:11:27.243Z,102545.44
2023-05-02T19:13:29.435Z,102547.94
2023-05-02T19:15:34.047Z,102550.63
2023-05-02T19:17:39.696Z,102552.06
2023-05-02T19:19:42.017Z,102562.53
2023-05-02T19:21:44.274Z,102556.63
2023-05-02T19:23:46.294Z,102561.22
2023-05-02T19:25:48.398Z,102565.78
2023-05-02T19:27:55.236Z,102556.09
2023-05-02T19:29:59.680Z,102561.03
2023-05-02T19:32:04.221Z,102560.38
2023-05-02T19:34:06.468Z,102563.47
2023-05-02T19:36:08.483Z,102572.25
2023-05-02T19:38:10.753Z,102568.41
2023-05-02T19:40:13.770Z,102572.91
2023-05-02T19:42:15.999Z,102569.03
2023-05-02T19:44:18.231Z,102573.50
2023-05-02T19:46:20.487Z,102571.03
2023-05-02T19:48:23.262Z,102576.16
2023-05-02T19:50:26.598Z,102574.69
2023-05-02T19:52:28.760Z,102574.97
2023-05-02T19:54:33.586Z,102584.28
2023-05-02T19:56:35.594Z,102578.41
2023-05-02T19:58:37.595Z,102578.16
2023-05-02T20:00:41.471Z,102584.66
2023-05-02T20:02:47.802Z,102595.13
2023-05-02T20:04:51.296Z,102595.22
2023-05-02T20:06:53.500Z,102595.94
2023-05-02T20:08:55.502Z,102593.25
2023-05-02T20:10:57.620Z,102598.53
2023-05-02T20:12:59.494Z,102606.88
2023-05-02T20:15:01.476Z,102605.59
2023-05-02T20:17:06.317Z,102611.09
2023-05-02T20:19:08.544Z,102607.66
2023-05-02T20:21:16.668Z,102609.91
2023-05-02T20:23:18.477Z,102610.34
2023-05-02T20:25:20.907Z,102614.44
2023-05-02T20:27:23.062Z,102615.50
2023-05-02T20:29:25.269Z,102621.69
2023-05-02T20:31:27.166Z,102623.88
2023-05-02T20:33:43.904Z,102636.06
2023-05-02T20:35:54.454Z,102638.28
2023-05-02T20:37:56.592Z,102638.88
2023-05-02T20:39:58.809Z,102642.53
2023-05-02T20:42:01.540Z,102640.56
2023-05-02T20:44:04.138Z,102641.94
2023-05-02T20:46:11.195Z,102646.72
2023-05-02T20:48:18.418Z,102646.47
2023-05-02T20:50:20.568Z,102649.00
2023-05-02T20:52:22.382Z,102644.59
2023-05-02T20:54:26.882Z,102649.63
2023-05-02T20:56:29.014Z,102649.44
2023-05-02T20:58:31.186Z,102649.75
2023-05-02T21:00:35.689Z,102639.25
2023-05-02T21:02:37.558Z,102639.06
2023-05-02T21:04:39.958Z,102646.22
2023-05-02T21:06:41.938Z,102630.25
2023-05-02T21:08:43.827Z,102627.91
2023-05-02T21:10:45.821Z,102627.22
2023-05-02T21:12:47.769Z,102638.00
2023-05-02T21:14:50.080Z,102622.00
2023-05-02T21:16:53.095Z,102628.75
2023-05-02T21:18:55.178Z,102630.81
2023-05-02T21:20:57.051Z,102637.22
2023-05-02T21:22:58.944Z,102629.50
2023-05-02T21:25:00.967Z,102629.41
2023-05-02T21:27:03.232Z,102618.44
2023-05-02T21:29:05.853Z,102625.66
2023-05-02T21:31:08.079Z,102623.44
2023-05-02T21:33:10.785Z,102624.75
2023-05-02T21:35:12.680Z,102623.94
2023-05-02T21:37:14.472Z,102615.09
2023-05-02T21:39:21.941Z,102610.16
2023-05-02T21:41:23.871Z,102608.94
2023-05-02T21:43:26.154Z,102611.72
2023-05-02T21:45:28.079Z,102615.72
2023-05-02T21:47:29.989Z,102606.38
2023-05-02T21:49:31.911Z,102609.06
2023-05-02T21:51:34.556Z,102614.19
2023-05-02T21:53:36.515Z,102610.94
2023-05-02T21:55:39.766Z,102607.91
2023-05-02T21:57:41.761Z,102609.09
2023-05-02T21:59:43.913Z,102613.81
2023-05-02T22:01:45.802Z,102607.03
2023-05-02T22:03:47.735Z,102612.47
2023-05-02T22:05:49.990Z,102608.06
2023-05-02T22:07:53.153Z,102612.91
2023-05-02T22:09:54.896Z,102615.41
2023-05-02T22:11:57.984Z,102622.56
2023-05-02T22:13:59.793Z,102614.28
2023-05-02T22:16:01.573Z,102605.31
2023-05-02T22:18:06.721Z,102610.28
2023-05-02T22:20:10.683Z,102610.38
2023-05-02T22:22:12.537Z,102613.19
2023-05-02T22:24:14.374Z,102614.63
2023-05-02T22:26:16.218Z,102623.78
2023-05-02T22:28:18.151Z,102629.47
2023-05-02T22:30:20.622Z,102622.97
2023-05-02T22:32:23.770Z,102618.91
2023-05-02T22:34:25.699Z,102620.25
2023-05-02T22:36:27.910Z,102618.03
2023-05-02T22:38:29.817Z,102619.38
2023-05-02T22:40:32.167Z,102621.59
2023-05-02T22:42:34.081Z,102605.69
2023-05-02T22:44:46.729Z,102599.72
2023-05-02T22:46:55.237Z,102597.78
2023-05-02T22:48:57.224Z,102603.38
2023-05-02T22:50:59.103Z,102606.16
2023-05-02T22:53:04.000Z,102599.31
2023-05-02T22:55:09.456Z,102603.44
2023-05-02T22:57:11.486Z,102597.75
2023-05-02T22:59:13.306Z,102599.97
2023-05-02T23:01:15.165Z,102612.31
2023-05-02T23:03:17.169Z,102614.81
2023-05-02T23:05:19.531Z,102610.03
2023-05-02T23:07:22.003Z,102607.72
2023-05-02T23:09:24.038Z,102614.19
2023-05-02T23:11:26.076Z,102613.28
2023-05-02T23:13:27.902Z,102607.91
2023-05-02T23:15:30.278Z,102606.34
2023-05-02T23:17:32.134Z,102604.09
2023-05-02T23:19:34.038Z,102607.84
2023-05-02T23:21:35.792Z,102608.69
2023-05-02T23:23:38.834Z,102609.31
2023-05-02T23:25:40.760Z,102615.69
2023-05-02T23:27:42.470Z,102624.91
2023-05-02T23:29:46.082Z,102621.09
2023-05-02T23:31:51.011Z,102624.03
2023-05-02T23:33:53.690Z,102626.34